sensor_id;sensor_type;location;lat;lon;timestamp;P1;durP1;ratioP1;P2;durP2;ratioP2
6013;SDS011;3035;49.928;8.410;2023-10-19T00:01:16;12.00;;;5.97;;
6013;SDS011;3035;49.928;8.410;2023-10-19T00:03:44;9.50;;;6.00;;
6013;SDS011;3035;49.928;8.410;2023-10-19T00:06:13;13.53;;;5.87;;
6013;SDS011;3035;49.928;8.410;2023-10-19T00:08:41;10.73;;;6.00;;
6013;SDS011;3035;49.928;8.410;2023-10-19T00:11:09;10.57;;;6.47;;
6013;SDS011;3035;49.928;8.410;2023-10-19T00:13:39;8.00;;;6.10;;
6013;SDS011;3035;49.928;8.410;2023-10-19T00:16:08;9.10;;;6.70;;
6013;SDS011;3035;49.928;8.410;2023-10-19T00:18:38;12.63;;;6.57;;
6013;SDS011;3035;49.928;8.410;2023-10-19T00:21:07;12.27;;;7.70;;
6013;SDS011;3035;49.928;8.410;2023-10-19T00:23:54;11.67;;;6.67;;
6013;SDS011;3035;49.928;8.410;2023-10-19T00:26:24;9.27;;;6.57;;
6013;SDS011;3035;49.928;8.410;2023-10-19T00:28:53;10.57;;;7.43;;
6013;SDS011;3035;49.928;8.410;2023-10-19T00:31:24;12.90;;;6.50;;
6013;SDS011;3035;49.928;8.410;2023-10-19T00:33:53;8.60;;;7.03;;
6013;SDS011;3035;49.928;8.410;2023-10-19T00:36:22;8.60;;;6.90;;
6013;SDS011;3035;49.928;8.410;2023-10-19T00:38:51;9.90;;;7.10;;
6013;SDS011;3035;49.928;8.410;2023-10-19T00:41:22;13.50;;;6.37;;
6013;SDS011;3035;49.928;8.410;2023-10-19T00:44:04;10.67;;;7.00;;
6013;SDS011;3035;49.928;8.410;2023-10-19T00:46:32;10.37;;;7.60;;
6013;SDS011;3035;49.928;8.410;2023-10-19T00:49:04;11.20;;;7.60;;
6013;SDS011;3035;49.928;8.410;2023-10-19T00:51:35;9.67;;;7.27;;
6013;SDS011;3035;49.928;8.410;2023-10-19T00:54:05;9.90;;;7.47;;
6013;SDS011;3035;49.928;8.410;2023-10-19T00:56:37;11.63;;;8.00;;
6013;SDS011;3035;49.928;8.410;2023-10-19T00:59:04;13.00;;;8.47;;
6013;SDS011;3035;49.928;8.410;2023-10-19T01:01:34;18.23;;;7.50;;
6013;SDS011;3035;49.928;8.410;2023-10-19T01:04:03;11.63;;;7.10;;
6013;SDS011;3035;49.928;8.410;2023-10-19T01:06:31;12.53;;;8.27;;
6013;SDS011;3035;49.928;8.410;2023-10-19T01:09:00;10.10;;;7.90;;
6013;SDS011;3035;49.928;8.410;2023-10-19T01:11:28;23.43;;;7.80;;
6013;SDS011;3035;49.928;8.410;2023-10-19T01:13:56;12.30;;;7.90;;
6013;SDS011;3035;49.928;8.410;2023-10-19T01:16:25;13.87;;;9.27;;
6013;SDS011;3035;49.928;8.410;2023-10-19T01:18:53;12.90;;;8.67;;
6013;SDS011;3035;49.928;8.410;2023-10-19T01:21:21;14.17;;;10.17;;
6013;SDS011;3035;49.928;8.410;2023-10-19T01:23:52;19.47;;;9.30;;
6013;SDS011;3035;49.928;8.410;2023-10-19T01:26:20;10.87;;;8.43;;
6013;SDS011;3035;49.928;8.410;2023-10-19T01:28:49;15.30;;;8.90;;
6013;SDS011;3035;49.928;8.410;2023-10-19T01:31:20;16.23;;;9.50;;
6013;SDS011;3035;49.928;8.410;2023-10-19T01:33:49;16.57;;;8.90;;
6013;SDS011;3035;49.928;8.410;2023-10-19T01:36:17;13.27;;;8.63;;
6013;SDS011;3035;49.928;8.410;2023-10-19T01:38:51;12.07;;;9.37;;
6013;SDS011;3035;49.928;8.410;2023-10-19T01:41:23;16.27;;;9.87;;
6013;SDS011;3035;49.928;8.410;2023-10-19T01:43:50;12.40;;;9.27;;
6013;SDS011;3035;49.928;8.410;2023-10-19T01:46:21;14.37;;;10.03;;
6013;SDS011;3035;49.928;8.410;2023-10-19T01:48:50;14.10;;;10.10;;
6013;SDS011;3035;49.928;8.410;2023-10-19T01:51:17;15.30;;;10.60;;
6013;SDS011;3035;49.928;8.410;2023-10-19T01:53:46;16.60;;;12.27;;
6013;SDS011;3035;49.928;8.410;2023-10-19T01:56:14;16.00;;;12.10;;
6013;SDS011;3035;49.928;8.410;2023-10-19T01:58:43;21.97;;;12.87;;
6013;SDS011;3035;49.928;8.410;2023-10-19T02:01:10;21.37;;;14.43;;
6013;SDS011;3035;49.928;8.410;2023-10-19T02:03:55;18.80;;;13.73;;
6013;SDS011;3035;49.928;8.410;2023-10-19T02:06:26;19.77;;;13.30;;
6013;SDS011;3035;49.928;8.410;2023-10-19T02:08:58;19.07;;;12.07;;
6013;SDS011;3035;49.928;8.410;2023-10-19T02:11:28;16.80;;;12.63;;
6013;SDS011;3035;49.928;8.410;2023-10-19T02:13:56;17.83;;;11.80;;
6013;SDS011;3035;49.928;8.410;2023-10-19T02:16:25;17.70;;;13.20;;
6013;SDS011;3035;49.928;8.410;2023-10-19T02:18:53;18.87;;;11.90;;
6013;SDS011;3035;49.928;8.410;2023-10-19T02:21:21;20.00;;;13.87;;
6013;SDS011;3035;49.928;8.410;2023-10-19T02:23:49;17.00;;;12.20;;
6013;SDS011;3035;49.928;8.410;2023-10-19T02:26:18;24.40;;;13.70;;
6013;SDS011;3035;49.928;8.410;2023-10-19T02:28:47;17.63;;;13.30;;
6013;SDS011;3035;49.928;8.410;2023-10-19T02:31:18;16.20;;;11.60;;
6013;SDS011;3035;49.928;8.410;2023-10-19T02:33:46;18.03;;;13.10;;
6013;SDS011;3035;49.928;8.410;2023-10-19T02:36:14;23.53;;;14.00;;
6013;SDS011;3035;49.928;8.410;2023-10-19T02:38:43;21.10;;;12.77;;
6013;SDS011;3035;49.928;8.410;2023-10-19T02:41:15;23.37;;;14.70;;
6013;SDS011;3035;49.928;8.410;2023-10-19T02:43:43;19.73;;;13.23;;
6013;SDS011;3035;49.928;8.410;2023-10-19T02:46:13;19.00;;;14.10;;
6013;SDS011;3035;49.928;8.410;2023-10-19T02:48:40;18.93;;;13.50;;
6013;SDS011;3035;49.928;8.410;2023-10-19T02:51:11;22.70;;;15.03;;
6013;SDS011;3035;49.928;8.410;2023-10-19T02:53:39;22.17;;;15.43;;
6013;SDS011;3035;49.928;8.410;2023-10-19T02:56:09;20.13;;;14.50;;
6013;SDS011;3035;49.928;8.410;2023-10-19T02:58:40;23.97;;;17.63;;
6013;SDS011;3035;49.928;8.410;2023-10-19T03:01:11;31.23;;;17.10;;
6013;SDS011;3035;49.928;8.410;2023-10-19T03:03:39;34.70;;;18.77;;
6013;SDS011;3035;49.928;8.410;2023-10-19T03:06:07;24.43;;;17.03;;
6013;SDS011;3035;49.928;8.410;2023-10-19T03:08:35;29.10;;;17.33;;
6013;SDS011;3035;49.928;8.410;2023-10-19T03:11:03;27.10;;;17.60;;
6013;SDS011;3035;49.928;8.410;2023-10-19T03:13:32;23.00;;;17.33;;
6013;SDS011;3035;49.928;8.410;2023-10-19T03:16:00;25.07;;;17.70;;
6013;SDS011;3035;49.928;8.410;2023-10-19T03:18:28;30.70;;;18.10;;
6013;SDS011;3035;49.928;8.410;2023-10-19T03:20:56;25.37;;;17.30;;
6013;SDS011;3035;49.928;8.410;2023-10-19T03:23:24;30.50;;;19.20;;
6013;SDS011;3035;49.928;8.410;2023-10-19T03:25:53;28.63;;;18.10;;
6013;SDS011;3035;49.928;8.410;2023-10-19T03:28:27;27.00;;;17.97;;
6013;SDS011;3035;49.928;8.410;2023-10-19T03:30:55;27.10;;;19.33;;
6013;SDS011;3035;49.928;8.410;2023-10-19T03:33:25;33.07;;;18.40;;
6013;SDS011;3035;49.928;8.410;2023-10-19T03:35:53;26.40;;;17.87;;
6013;SDS011;3035;49.928;8.410;2023-10-19T03:38:21;35.17;;;19.57;;
6013;SDS011;3035;49.928;8.410;2023-10-19T03:40:49;36.10;;;19.33;;
6013;SDS011;3035;49.928;8.410;2023-10-19T03:43:18;27.80;;;18.17;;
6013;SDS011;3035;49.928;8.410;2023-10-19T03:45:49;36.40;;;18.30;;
6013;SDS011;3035;49.928;8.410;2023-10-19T03:48:18;25.40;;;17.90;;
6013;SDS011;3035;49.928;8.410;2023-10-19T03:51:01;28.13;;;17.80;;
6013;SDS011;3035;49.928;8.410;2023-10-19T03:53:29;29.40;;;19.27;;
6013;SDS011;3035;49.928;8.410;2023-10-19T03:55:58;24.90;;;17.33;;
6013;SDS011;3035;49.928;8.410;2023-10-19T03:58:26;29.27;;;17.10;;
6013;SDS011;3035;49.928;8.410;2023-10-19T04:00:54;27.40;;;17.73;;
6013;SDS011;3035;49.928;8.410;2023-10-19T04:03:22;31.40;;;18.00;;
6013;SDS011;3035;49.928;8.410;2023-10-19T04:05:50;25.90;;;17.67;;
6013;SDS011;3035;49.928;8.410;2023-10-19T04:08:18;24.53;;;16.30;;
6013;SDS011;3035;49.928;8.410;2023-10-19T04:10:47;28.27;;;18.67;;
6013;SDS011;3035;49.928;8.410;2023-10-19T04:13:30;27.50;;;17.43;;
6013;SDS011;3035;49.928;8.410;2023-10-19T04:15:59;34.40;;;22.20;;
6013;SDS011;3035;49.928;8.410;2023-10-19T04:18:27;37.80;;;21.63;;
6013;SDS011;3035;49.928;8.410;2023-10-19T04:20:55;38.10;;;20.90;;
6013;SDS011;3035;49.928;8.410;2023-10-19T04:23:24;26.67;;;18.53;;
6013;SDS011;3035;49.928;8.410;2023-10-19T04:25:54;32.43;;;20.93;;
6013;SDS011;3035;49.928;8.410;2023-10-19T04:28:24;28.87;;;20.10;;
6013;SDS011;3035;49.928;8.410;2023-10-19T04:30:57;32.00;;;19.20;;
6013;SDS011;3035;49.928;8.410;2023-10-19T04:33:28;33.33;;;21.33;;
6013;SDS011;3035;49.928;8.410;2023-10-19T04:35:56;36.63;;;19.83;;
6013;SDS011;3035;49.928;8.410;2023-10-19T04:38:25;30.80;;;21.07;;
6013;SDS011;3035;49.928;8.410;2023-10-19T04:40:53;35.97;;;19.53;;
6013;SDS011;3035;49.928;8.410;2023-10-19T04:43:21;33.17;;;21.47;;
6013;SDS011;3035;49.928;8.410;2023-10-19T04:45:49;32.17;;;20.43;;
6013;SDS011;3035;49.928;8.410;2023-10-19T04:48:17;40.53;;;22.30;;
6013;SDS011;3035;49.928;8.410;2023-10-19T04:50:46;32.90;;;21.33;;
6013;SDS011;3035;49.928;8.410;2023-10-19T04:53:14;33.50;;;21.03;;
6013;SDS011;3035;49.928;8.410;2023-10-19T04:55:42;31.37;;;21.17;;
6013;SDS011;3035;49.928;8.410;2023-10-19T04:58:10;35.90;;;22.33;;
6013;SDS011;3035;49.928;8.410;2023-10-19T05:00:38;33.00;;;21.10;;
6013;SDS011;3035;49.928;8.410;2023-10-19T05:03:07;33.70;;;21.10;;
6013;SDS011;3035;49.928;8.410;2023-10-19T05:05:35;32.07;;;21.07;;
6013;SDS011;3035;49.928;8.410;2023-10-19T05:08:03;39.97;;;23.70;;
6013;SDS011;3035;49.928;8.410;2023-10-19T05:10:31;37.97;;;21.20;;
6013;SDS011;3035;49.928;8.410;2023-10-19T05:13:00;33.60;;;21.30;;
6013;SDS011;3035;49.928;8.410;2023-10-19T05:15:28;33.90;;;20.97;;
6013;SDS011;3035;49.928;8.410;2023-10-19T05:17:56;38.27;;;21.70;;
6013;SDS011;3035;49.928;8.410;2023-10-19T05:20:24;39.00;;;23.10;;
6013;SDS011;3035;49.928;8.410;2023-10-19T05:22:52;36.00;;;22.07;;
6013;SDS011;3035;49.928;8.410;2023-10-19T05:25:21;35.73;;;21.93;;
6013;SDS011;3035;49.928;8.410;2023-10-19T05:27:49;45.00;;;23.53;;
6013;SDS011;3035;49.928;8.410;2023-10-19T05:30:17;35.70;;;21.63;;
6013;SDS011;3035;49.928;8.410;2023-10-19T05:32:45;42.83;;;25.87;;
6013;SDS011;3035;49.928;8.410;2023-10-19T05:35:13;44.67;;;25.90;;
6013;SDS011;3035;49.928;8.410;2023-10-19T05:37:42;44.10;;;28.00;;
6013;SDS011;3035;49.928;8.410;2023-10-19T05:40:10;39.83;;;24.43;;
6013;SDS011;3035;49.928;8.410;2023-10-19T05:42:39;34.80;;;22.73;;
6013;SDS011;3035;49.928;8.410;2023-10-19T05:45:07;39.37;;;22.37;;
6013;SDS011;3035;49.928;8.410;2023-10-19T05:47:35;36.90;;;21.73;;
6013;SDS011;3035;49.928;8.410;2023-10-19T05:50:03;39.90;;;22.00;;
6013;SDS011;3035;49.928;8.410;2023-10-19T05:52:32;33.50;;;21.90;;
6013;SDS011;3035;49.928;8.410;2023-10-19T05:55:00;43.37;;;23.47;;
6013;SDS011;3035;49.928;8.410;2023-10-19T05:57:28;37.30;;;23.20;;
6013;SDS011;3035;49.928;8.410;2023-10-19T05:59:57;37.03;;;20.60;;
6013;SDS011;3035;49.928;8.410;2023-10-19T06:02:25;34.10;;;21.47;;
6013;SDS011;3035;49.928;8.410;2023-10-19T06:04:53;39.50;;;22.43;;
6013;SDS011;3035;49.928;8.410;2023-10-19T06:07:21;37.40;;;23.10;;
6013;SDS011;3035;49.928;8.410;2023-10-19T06:09:49;41.17;;;22.50;;
6013;SDS011;3035;49.928;8.410;2023-10-19T06:12:18;45.43;;;22.70;;
6013;SDS011;3035;49.928;8.410;2023-10-19T06:14:46;34.87;;;21.00;;
6013;SDS011;3035;49.928;8.410;2023-10-19T06:17:14;40.43;;;23.20;;
6013;SDS011;3035;49.928;8.410;2023-10-19T06:19:43;33.33;;;19.43;;
6013;SDS011;3035;49.928;8.410;2023-10-19T06:22:12;36.57;;;21.40;;
6013;SDS011;3035;49.928;8.410;2023-10-19T06:24:40;42.10;;;22.33;;
6013;SDS011;3035;49.928;8.410;2023-10-19T06:27:09;36.20;;;21.53;;
6013;SDS011;3035;49.928;8.410;2023-10-19T06:29:37;41.17;;;21.57;;
6013;SDS011;3035;49.928;8.410;2023-10-19T06:32:06;53.10;;;23.70;;
6013;SDS011;3035;49.928;8.410;2023-10-19T06:34:34;45.33;;;23.53;;
6013;SDS011;3035;49.928;8.410;2023-10-19T06:37:02;48.60;;;27.20;;
6013;SDS011;3035;49.928;8.410;2023-10-19T06:39:31;40.83;;;23.93;;
6013;SDS011;3035;49.928;8.410;2023-10-19T06:41:59;42.80;;;23.90;;
6013;SDS011;3035;49.928;8.410;2023-10-19T06:44:28;43.23;;;23.20;;
6013;SDS011;3035;49.928;8.410;2023-10-19T06:46:58;48.03;;;25.00;;
6013;SDS011;3035;49.928;8.410;2023-10-19T06:49:29;35.63;;;21.97;;
6013;SDS011;3035;49.928;8.410;2023-10-19T06:51:55;47.50;;;24.20;;
6013;SDS011;3035;49.928;8.410;2023-10-19T06:54:24;48.77;;;24.40;;
6013;SDS011;3035;49.928;8.410;2023-10-19T06:56:52;38.70;;;22.10;;
6013;SDS011;3035;49.928;8.410;2023-10-19T06:59:20;48.30;;;22.93;;
6013;SDS011;3035;49.928;8.410;2023-10-19T07:01:49;109.50;;;48.63;;
6013;SDS011;3035;49.928;8.410;2023-10-19T07:04:17;66.50;;;32.90;;
6013;SDS011;3035;49.928;8.410;2023-10-19T07:06:47;55.87;;;30.10;;
6013;SDS011;3035;49.928;8.410;2023-10-19T07:09:16;61.63;;;30.17;;
6013;SDS011;3035;49.928;8.410;2023-10-19T07:11:44;64.07;;;30.97;;
6013;SDS011;3035;49.928;8.410;2023-10-19T07:14:12;53.50;;;27.70;;
6013;SDS011;3035;49.928;8.410;2023-10-19T07:16:40;53.27;;;27.83;;
6013;SDS011;3035;49.928;8.410;2023-10-19T07:19:08;51.40;;;25.43;;
6013;SDS011;3035;49.928;8.410;2023-10-19T07:21:37;47.60;;;25.67;;
6013;SDS011;3035;49.928;8.410;2023-10-19T07:24:05;46.80;;;24.27;;
6013;SDS011;3035;49.928;8.410;2023-10-19T07:26:33;51.07;;;25.77;;
6013;SDS011;3035;49.928;8.410;2023-10-19T07:29:02;52.93;;;25.57;;
6013;SDS011;3035;49.928;8.410;2023-10-19T07:31:30;46.03;;;25.93;;
6013;SDS011;3035;49.928;8.410;2023-10-19T07:33:58;48.50;;;25.90;;
6013;SDS011;3035;49.928;8.410;2023-10-19T07:36:26;44.90;;;25.63;;
6013;SDS011;3035;49.928;8.410;2023-10-19T07:38:54;50.00;;;27.00;;
6013;SDS011;3035;49.928;8.410;2023-10-19T07:41:23;50.40;;;28.00;;
6013;SDS011;3035;49.928;8.410;2023-10-19T07:43:51;51.57;;;26.50;;
6013;SDS011;3035;49.928;8.410;2023-10-19T07:46:19;45.23;;;26.90;;
6013;SDS011;3035;49.928;8.410;2023-10-19T07:48:47;43.70;;;26.50;;
6013;SDS011;3035;49.928;8.410;2023-10-19T07:51:16;53.67;;;27.80;;
6013;SDS011;3035;49.928;8.410;2023-10-19T07:53:44;45.87;;;26.27;;
6013;SDS011;3035;49.928;8.410;2023-10-19T07:56:12;46.30;;;25.90;;
6013;SDS011;3035;49.928;8.410;2023-10-19T07:58:40;47.00;;;25.43;;
6013;SDS011;3035;49.928;8.410;2023-10-19T08:01:08;49.20;;;26.13;;
6013;SDS011;3035;49.928;8.410;2023-10-19T08:03:37;49.97;;;25.60;;
6013;SDS011;3035;49.928;8.410;2023-10-19T08:06:05;46.50;;;26.00;;
6013;SDS011;3035;49.928;8.410;2023-10-19T08:08:33;44.17;;;24.40;;
6013;SDS011;3035;49.928;8.410;2023-10-19T08:11:01;45.07;;;25.83;;
6013;SDS011;3035;49.928;8.410;2023-10-19T08:13:29;42.43;;;25.10;;
6013;SDS011;3035;49.928;8.410;2023-10-19T08:15:58;43.57;;;25.17;;
6013;SDS011;3035;49.928;8.410;2023-10-19T08:18:26;46.50;;;26.97;;
6013;SDS011;3035;49.928;8.410;2023-10-19T08:20:54;43.97;;;26.30;;
6013;SDS011;3035;49.928;8.410;2023-10-19T08:23:22;34.67;;;25.40;;
6013;SDS011;3035;49.928;8.410;2023-10-19T08:25:51;41.10;;;23.80;;
6013;SDS011;3035;49.928;8.410;2023-10-19T08:28:19;40.80;;;24.23;;
6013;SDS011;3035;49.928;8.410;2023-10-19T08:30:47;37.60;;;24.53;;
6013;SDS011;3035;49.928;8.410;2023-10-19T08:33:20;38.60;;;23.23;;
6013;SDS011;3035;49.928;8.410;2023-10-19T08:35:49;37.90;;;25.20;;
6013;SDS011;3035;49.928;8.410;2023-10-19T08:38:17;37.37;;;23.00;;
6013;SDS011;3035;49.928;8.410;2023-10-19T08:40:45;38.30;;;23.47;;
6013;SDS011;3035;49.928;8.410;2023-10-19T08:43:13;43.33;;;27.20;;
6013;SDS011;3035;49.928;8.410;2023-10-19T08:45:42;38.17;;;24.30;;
6013;SDS011;3035;49.928;8.410;2023-10-19T08:48:10;42.93;;;24.63;;
6013;SDS011;3035;49.928;8.410;2023-10-19T08:50:38;38.57;;;25.10;;
6013;SDS011;3035;49.928;8.410;2023-10-19T08:53:07;45.00;;;28.33;;
6013;SDS011;3035;49.928;8.410;2023-10-19T08:55:35;42.20;;;25.37;;
6013;SDS011;3035;49.928;8.410;2023-10-19T08:58:03;43.60;;;26.83;;
6013;SDS011;3035;49.928;8.410;2023-10-19T09:03:10;48.03;;;26.83;;
6013;SDS011;3035;49.928;8.410;2023-10-19T09:05:38;40.27;;;26.03;;
6013;SDS011;3035;49.928;8.410;2023-10-19T09:08:06;38.67;;;24.03;;
6013;SDS011;3035;49.928;8.410;2023-10-19T09:10:34;47.13;;;25.67;;
6013;SDS011;3035;49.928;8.410;2023-10-19T09:13:03;40.50;;;25.30;;
6013;SDS011;3035;49.928;8.410;2023-10-19T09:15:32;43.83;;;24.10;;
6013;SDS011;3035;49.928;8.410;2023-10-19T09:20:43;41.27;;;24.67;;
6013;SDS011;3035;49.928;8.410;2023-10-19T09:23:25;41.77;;;23.73;;
6013;SDS011;3035;49.928;8.410;2023-10-19T09:25:56;34.87;;;23.10;;
6013;SDS011;3035;49.928;8.410;2023-10-19T09:28:22;38.87;;;22.00;;
6013;SDS011;3035;49.928;8.410;2023-10-19T09:30:50;36.47;;;22.47;;
6013;SDS011;3035;49.928;8.410;2023-10-19T09:33:18;28.47;;;21.77;;
6013;SDS011;3035;49.928;8.410;2023-10-19T09:35:47;38.73;;;22.97;;
6013;SDS011;3035;49.928;8.410;2023-10-19T09:38:15;30.83;;;21.53;;
6013;SDS011;3035;49.928;8.410;2023-10-19T09:40:43;33.80;;;21.57;;
6013;SDS011;3035;49.928;8.410;2023-10-19T09:43:15;40.30;;;21.20;;
6013;SDS011;3035;49.928;8.410;2023-10-19T09:45:40;33.13;;;22.70;;
6013;SDS011;3035;49.928;8.410;2023-10-19T09:48:08;32.60;;;21.63;;
6013;SDS011;3035;49.928;8.410;2023-10-19T09:50:36;31.23;;;21.20;;
6013;SDS011;3035;49.928;8.410;2023-10-19T09:53:04;31.37;;;21.37;;
6013;SDS011;3035;49.928;8.410;2023-10-19T09:55:33;35.77;;;21.77;;
6013;SDS011;3035;49.928;8.410;2023-10-19T09:58:02;31.73;;;20.97;;
6013;SDS011;3035;49.928;8.410;2023-10-19T10:00:29;35.00;;;21.63;;
6013;SDS011;3035;49.928;8.410;2023-10-19T10:02:58;28.80;;;19.87;;
6013;SDS011;3035;49.928;8.410;2023-10-19T10:11:00;32.23;;;21.33;;
6013;SDS011;3035;49.928;8.410;2023-10-19T10:16:13;26.07;;;19.63;;
6013;SDS011;3035;49.928;8.410;2023-10-19T10:18:42;28.13;;;19.77;;
6013;SDS011;3035;49.928;8.410;2023-10-19T10:21:12;29.17;;;22.03;;
6013;SDS011;3035;49.928;8.410;2023-10-19T10:23:42;29.40;;;18.50;;
6013;SDS011;3035;49.928;8.410;2023-10-19T10:26:23;25.07;;;18.63;;
6013;SDS011;3035;49.928;8.410;2023-10-19T10:31:44;27.03;;;16.93;;
6013;SDS011;3035;49.928;8.410;2023-10-19T10:37:16;27.13;;;17.43;;
6013;SDS011;3035;49.928;8.410;2023-10-19T10:39:44;22.90;;;15.77;;
6013;SDS011;3035;49.928;8.410;2023-10-19T10:42:12;21.80;;;16.53;;
6013;SDS011;3035;49.928;8.410;2023-10-19T10:44:41;20.60;;;14.87;;
6013;SDS011;3035;49.928;8.410;2023-10-19T10:47:11;23.67;;;15.90;;
6013;SDS011;3035;49.928;8.410;2023-10-19T10:49:50;29.27;;;17.70;;
6013;SDS011;3035;49.928;8.410;2023-10-19T10:52:24;19.67;;;15.73;;
6013;SDS011;3035;49.928;8.410;2023-10-19T10:54:56;22.70;;;15.60;;
6013;SDS011;3035;49.928;8.410;2023-10-19T10:57:31;21.30;;;16.30;;
6013;SDS011;3035;49.928;8.410;2023-10-19T11:00:01;24.83;;;16.37;;
6013;SDS011;3035;49.928;8.410;2023-10-19T11:02:31;27.00;;;16.37;;
6013;SDS011;3035;49.928;8.410;2023-10-19T11:04:59;24.20;;;16.17;;
6013;SDS011;3035;49.928;8.410;2023-10-19T11:07:27;21.17;;;15.77;;
6013;SDS011;3035;49.928;8.410;2023-10-19T11:09:55;22.67;;;15.90;;
6013;SDS011;3035;49.928;8.410;2023-10-19T11:12:24;21.03;;;14.60;;
6013;SDS011;3035;49.928;8.410;2023-10-19T11:14:53;21.97;;;14.10;;
6013;SDS011;3035;49.928;8.410;2023-10-19T11:17:22;17.37;;;13.87;;
6013;SDS011;3035;49.928;8.410;2023-10-19T11:19:51;22.70;;;16.20;;
6013;SDS011;3035;49.928;8.410;2023-10-19T11:22:20;20.53;;;15.60;;
6013;SDS011;3035;49.928;8.410;2023-10-19T11:24:49;30.83;;;17.00;;
6013;SDS011;3035;49.928;8.410;2023-10-19T11:27:22;22.20;;;14.33;;
6013;SDS011;3035;49.928;8.410;2023-10-19T11:29:55;19.80;;;14.40;;
6013;SDS011;3035;49.928;8.410;2023-10-19T11:32:25;20.50;;;14.30;;
6013;SDS011;3035;49.928;8.410;2023-10-19T11:34:53;26.60;;;15.40;;
6013;SDS011;3035;49.928;8.410;2023-10-19T11:37:23;23.23;;;15.20;;
6013;SDS011;3035;49.928;8.410;2023-10-19T11:39:52;23.33;;;14.17;;
6013;SDS011;3035;49.928;8.410;2023-10-19T11:42:20;25.77;;;14.10;;
6013;SDS011;3035;49.928;8.410;2023-10-19T11:44:49;19.33;;;14.07;;
6013;SDS011;3035;49.928;8.410;2023-10-19T11:47:17;23.83;;;13.70;;
6013;SDS011;3035;49.928;8.410;2023-10-19T11:49:45;23.37;;;14.70;;
6013;SDS011;3035;49.928;8.410;2023-10-19T11:52:14;21.50;;;13.43;;
6013;SDS011;3035;49.928;8.410;2023-10-19T11:54:43;20.80;;;14.47;;
6013;SDS011;3035;49.928;8.410;2023-10-19T11:57:11;20.40;;;14.47;;
6013;SDS011;3035;49.928;8.410;2023-10-19T11:59:39;22.93;;;13.83;;
6013;SDS011;3035;49.928;8.410;2023-10-19T12:02:08;25.93;;;14.40;;
6013;SDS011;3035;49.928;8.410;2023-10-19T12:04:36;18.07;;;14.53;;
6013;SDS011;3035;49.928;8.410;2023-10-19T12:07:04;21.03;;;15.47;;
6013;SDS011;3035;49.928;8.410;2023-10-19T12:09:32;18.20;;;14.03;;
6013;SDS011;3035;49.928;8.410;2023-10-19T12:12:00;24.37;;;14.73;;
6013;SDS011;3035;49.928;8.410;2023-10-19T12:14:29;23.00;;;14.03;;
6013;SDS011;3035;49.928;8.410;2023-10-19T12:16:57;22.27;;;14.50;;
6013;SDS011;3035;49.928;8.410;2023-10-19T12:19:25;27.13;;;13.67;;
6013;SDS011;3035;49.928;8.410;2023-10-19T12:21:53;18.60;;;14.90;;
6013;SDS011;3035;49.928;8.410;2023-10-19T12:24:21;21.83;;;14.63;;
6013;SDS011;3035;49.928;8.410;2023-10-19T12:26:50;23.87;;;15.97;;
6013;SDS011;3035;49.928;8.410;2023-10-19T12:29:18;20.90;;;15.50;;
6013;SDS011;3035;49.928;8.410;2023-10-19T12:31:47;24.60;;;16.37;;
6013;SDS011;3035;49.928;8.410;2023-10-19T12:34:15;22.73;;;16.03;;
6013;SDS011;3035;49.928;8.410;2023-10-19T12:36:43;19.70;;;15.30;;
6013;SDS011;3035;49.928;8.410;2023-10-19T12:39:12;28.73;;;16.37;;
6013;SDS011;3035;49.928;8.410;2023-10-19T12:41:40;25.73;;;16.47;;
6013;SDS011;3035;49.928;8.410;2023-10-19T12:44:08;21.97;;;15.40;;
6013;SDS011;3035;49.928;8.410;2023-10-19T12:46:37;30.33;;;18.30;;
6013;SDS011;3035;49.928;8.410;2023-10-19T12:49:05;25.53;;;18.57;;
6013;SDS011;3035;49.928;8.410;2023-10-19T12:51:34;25.37;;;17.13;;
6013;SDS011;3035;49.928;8.410;2023-10-19T12:54:03;26.33;;;16.67;;
6013;SDS011;3035;49.928;8.410;2023-10-19T12:56:33;28.70;;;19.23;;
6013;SDS011;3035;49.928;8.410;2023-10-19T12:59:02;28.70;;;17.90;;
6013;SDS011;3035;49.928;8.410;2023-10-19T13:01:32;33.67;;;18.33;;
6013;SDS011;3035;49.928;8.410;2023-10-19T13:03:58;29.03;;;18.53;;
6013;SDS011;3035;49.928;8.410;2023-10-19T13:06:27;30.03;;;19.23;;
6013;SDS011;3035;49.928;8.410;2023-10-19T13:08:55;27.67;;;18.60;;
6013;SDS011;3035;49.928;8.410;2023-10-19T13:11:23;26.57;;;17.77;;
6013;SDS011;3035;49.928;8.410;2023-10-19T13:13:51;28.73;;;18.40;;
6013;SDS011;3035;49.928;8.410;2023-10-19T13:16:19;27.93;;;20.83;;
6013;SDS011;3035;49.928;8.410;2023-10-19T13:18:48;29.53;;;18.90;;
6013;SDS011;3035;49.928;8.410;2023-10-19T13:21:16;27.23;;;18.70;;
6013;SDS011;3035;49.928;8.410;2023-10-19T13:23:44;23.97;;;17.30;;
6013;SDS011;3035;49.928;8.410;2023-10-19T13:26:12;26.50;;;18.73;;
6013;SDS011;3035;49.928;8.410;2023-10-19T13:28:44;25.50;;;18.73;;
6013;SDS011;3035;49.928;8.410;2023-10-19T13:31:12;27.57;;;19.67;;
6013;SDS011;3035;49.928;8.410;2023-10-19T13:33:41;32.50;;;19.50;;
6013;SDS011;3035;49.928;8.410;2023-10-19T13:36:09;30.70;;;19.90;;
6013;SDS011;3035;49.928;8.410;2023-10-19T13:38:38;32.07;;;19.50;;
6013;SDS011;3035;49.928;8.410;2023-10-19T13:41:06;30.07;;;21.07;;
6013;SDS011;3035;49.928;8.410;2023-10-19T13:43:38;26.90;;;19.33;;
6013;SDS011;3035;49.928;8.410;2023-10-19T13:46:06;30.80;;;18.50;;
6013;SDS011;3035;49.928;8.410;2023-10-19T13:48:34;25.07;;;18.03;;
6013;SDS011;3035;49.928;8.410;2023-10-19T13:51:03;26.30;;;16.93;;
6013;SDS011;3035;49.928;8.410;2023-10-19T13:53:39;30.47;;;18.40;;
6013;SDS011;3035;49.928;8.410;2023-10-19T13:56:09;27.27;;;17.90;;
6013;SDS011;3035;49.928;8.410;2023-10-19T13:58:37;24.90;;;17.43;;
6013;SDS011;3035;49.928;8.410;2023-10-19T14:01:06;28.37;;;18.20;;
6013;SDS011;3035;49.928;8.410;2023-10-19T14:03:34;28.47;;;18.50;;
6013;SDS011;3035;49.928;8.410;2023-10-19T14:06:02;23.13;;;17.80;;
6013;SDS011;3035;49.928;8.410;2023-10-19T14:08:30;22.83;;;15.83;;
6013;SDS011;3035;49.928;8.410;2023-10-19T14:11:01;22.27;;;15.47;;
6013;SDS011;3035;49.928;8.410;2023-10-19T14:13:28;22.87;;;14.97;;
6013;SDS011;3035;49.928;8.410;2023-10-19T14:15:57;24.40;;;15.70;;
6013;SDS011;3035;49.928;8.410;2023-10-19T14:18:25;23.07;;;16.67;;
6013;SDS011;3035;49.928;8.410;2023-10-19T14:20:53;29.27;;;17.90;;
6013;SDS011;3035;49.928;8.410;2023-10-19T14:23:21;28.80;;;18.30;;
6013;SDS011;3035;49.928;8.410;2023-10-19T14:25:49;28.50;;;17.83;;
6013;SDS011;3035;49.928;8.410;2023-10-19T14:28:18;30.40;;;19.37;;
6013;SDS011;3035;49.928;8.410;2023-10-19T14:30:46;38.13;;;18.67;;
6013;SDS011;3035;49.928;8.410;2023-10-19T14:33:14;27.77;;;17.90;;
6013;SDS011;3035;49.928;8.410;2023-10-19T14:35:42;26.70;;;19.43;;
6013;SDS011;3035;49.928;8.410;2023-10-19T14:38:11;22.40;;;17.87;;
6013;SDS011;3035;49.928;8.410;2023-10-19T14:40:39;29.60;;;18.70;;
6013;SDS011;3035;49.928;8.410;2023-10-19T14:43:10;24.87;;;18.27;;
6013;SDS011;3035;49.928;8.410;2023-10-19T14:45:39;30.87;;;20.13;;
6013;SDS011;3035;49.928;8.410;2023-10-19T14:48:06;28.40;;;19.67;;
6013;SDS011;3035;49.928;8.410;2023-10-19T14:50:34;26.37;;;18.17;;
6013;SDS011;3035;49.928;8.410;2023-10-19T14:53:03;25.50;;;17.40;;
6013;SDS011;3035;49.928;8.410;2023-10-19T14:55:31;26.43;;;17.60;;
6013;SDS011;3035;49.928;8.410;2023-10-19T14:57:59;27.03;;;18.23;;
6013;SDS011;3035;49.928;8.410;2023-10-19T15:00:27;30.90;;;19.97;;
6013;SDS011;3035;49.928;8.410;2023-10-19T15:03:11;32.73;;;18.67;;
6013;SDS011;3035;49.928;8.410;2023-10-19T15:05:39;32.90;;;18.23;;
6013;SDS011;3035;49.928;8.410;2023-10-19T15:08:07;27.80;;;18.10;;
6013;SDS011;3035;49.928;8.410;2023-10-19T15:10:39;31.33;;;17.40;;
6013;SDS011;3035;49.928;8.410;2023-10-19T15:13:04;23.20;;;14.93;;
6013;SDS011;3035;49.928;8.410;2023-10-19T15:15:32;21.80;;;15.33;;
6013;SDS011;3035;49.928;8.410;2023-10-19T15:18:00;18.17;;;14.80;;
6013;SDS011;3035;49.928;8.410;2023-10-19T15:20:29;16.70;;;13.80;;